Time;durP1;ratioP1;P1;durP2;ratioP2;P2;SDS_P1;SDS_P2;PMS_P1;PMS_P2;Temp;Humidity;BMP_temperature;BMP_pressure;BME280_temperature;BME280_humidity;BME280_pressure;Samples;Min_cycle;Max_cycle;Signal;HPM_P1;HPM_P2
2023/07/09 00:01:51;;;;;;;10.93;5.90;;;24.00;99.90;;;;;;5092886;28;20278;-51
2023/07/09 00:04:17;;;;;;;10.02;6.28;;;24.00;99.90;;;;;;5093321;28;20158;-52
2023/07/09 00:06:44;;;;;;;9.63;5.82;;;24.00;99.90;;;;;;5092638;28;20169;-51
2023/07/09 00:09:18;;;;;;;9.57;5.45;;;24.00;99.90;;;;;;5092580;28;20165;-51
2023/07/09 00:11:44;;;;;;;9.25;5.53;;;23.90;99.90;;;;;;5092747;28;20264;-52
2023/07/09 00:14:14;;;;;;;10.32;6.28;;;23.90;99.90;;;;;;5092735;28;20170;-51
2023/07/09 00:16:41;;;;;;;9.55;6.40;;;23.90;99.90;;;;;;5092619;28;20165;-51
2023/07/09 00:19:19;;;;;;;8.00;6.28;;;23.90;99.90;;;;;;5092881;28;20524;-52
2023/07/09 00:21:46;;;;;;;7.80;5.75;;;23.90;99.90;;;;;;5092752;28;20201;-52
2023/07/09 00:24:12;;;;;;;8.52;5.95;;;23.80;99.90;;;;;;5092476;28;20161;-52
2023/07/09 00:26:40;;;;;;;10.80;5.78;;;23.80;99.90;;;;;;5092442;28;20637;-52
2023/07/09 00:29:09;;;;;;;17.05;6.60;;;23.70;99.90;;;;;;5092729;28;20574;-52
2023/07/09 00:31:38;;;;;;;17.90;6.30;;;23.70;99.90;;;;;;5092759;28;20165;-51
2023/07/09 00:34:04;;;;;;;22.02;6.10;;;23.60;99.90;;;;;;5092060;28;20169;-52
2023/07/09 00:36:31;;;;;;;11.48;5.80;;;23.40;99.90;;;;;;5092110;28;20188;-52
2023/07/09 00:39:02;;;;;;;18.88;7.20;;;23.50;99.90;;;;;;5092196;28;20170;-52
2023/07/09 00:41:28;;;;;;;20.40;6.40;;;23.40;99.90;;;;;;5092207;28;20201;-52
2023/07/09 00:43:54;;;;;;;19.20;6.60;;;23.40;99.90;;;;;;5092192;28;20542;-52
2023/07/09 00:46:19;;;;;;;16.40;7.22;;;23.40;99.90;;;;;;5092512;28;20170;-52
2023/07/09 00:48:58;;;;;;;19.35;6.93;;;23.40;99.90;;;;;;5092098;28;20252;-52
2023/07/09 00:51:25;;;;;;;16.90;7.03;;;23.40;99.90;;;;;;5092034;28;20172;-51
2023/07/09 00:53:55;;;;;;;17.40;6.88;;;23.40;99.90;;;;;;5092044;28;20172;-51
2023/07/09 00:56:42;;;;;;;16.02;7.25;;;23.20;99.90;;;;;;5091950;28;20172;-51
2023/07/09 00:59:15;;;;;;;21.08;7.57;;;23.10;99.90;;;;;;5091909;28;20173;-51
2023/07/09 01:01:41;;;;;;;17.98;6.72;;;23.10;99.90;;;;;;5091804;28;20208;-51
2023/07/09 01:04:10;;;;;;;15.75;6.15;;;23.10;99.90;;;;;;5073759;28;20165;-51
2023/07/09 01:06:52;;;;;;;21.20;7.20;;;23.00;99.90;;;;;;5091881;28;20708;-52
2023/07/09 01:09:18;;;;;;;17.25;6.82;;;22.90;99.90;;;;;;5092433;28;20214;-51
2023/07/09 01:11:44;;;;;;;12.57;6.40;;;23.00;99.90;;;;;;5091836;28;20173;-51
2023/07/09 01:14:14;;;;;;;22.90;7.25;;;22.90;99.90;;;;;;5091807;28;20183;-51
2023/07/09 01:16:45;;;;;;;21.55;7.93;;;22.80;99.90;;;;;;5091945;28;20169;-51
2023/07/09 01:19:13;;;;;;;13.85;7.55;;;22.80;99.90;;;;;;5092041;28;20295;-51
2023/07/09 01:21:39;;;;;;;19.23;7.47;;;22.80;99.90;;;;;;5091619;28;20208;-51
2023/07/09 01:24:35;;;;;;;13.80;6.70;;;22.70;99.90;;;;;;5091678;28;20165;-51
2023/07/09 01:27:02;;;;;;;16.98;6.95;;;22.80;99.90;;;;;;5091500;28;20161;-51
2023/07/09 01:29:33;;;;;;;21.55;9.50;;;22.80;99.90;;;;;;5091576;28;20157;-51
2023/07/09 01:31:58;;;;;;;17.80;7.10;;;22.80;99.90;;;;;;5091432;28;20649;-51
2023/07/09 01:34:25;;;;;;;18.98;6.28;;;22.90;99.90;;;;;;5091572;28;20177;-51
2023/07/09 01:36:51;;;;;;;13.98;7.00;;;22.80;99.90;;;;;;5091805;28;20261;-51
2023/07/09 01:39:18;;;;;;;15.23;7.50;;;22.80;99.90;;;;;;5092118;28;20175;-51
2023/07/09 01:41:47;;;;;;;15.07;6.57;;;22.80;99.90;;;;;;5091379;28;20289;-51
2023/07/09 01:44:13;;;;;;;13.23;6.60;;;22.80;99.90;;;;;;5091366;28;20154;-51
2023/07/09 01:46:39;;;;;;;14.07;6.60;;;22.80;99.90;;;;;;5093169;28;20632;-51
2023/07/09 01:49:07;;;;;;;19.60;7.35;;;22.80;99.90;;;;;;5095559;28;20168;-51
2023/07/09 01:51:33;;;;;;;12.75;7.13;;;22.80;99.90;;;;;;5095494;28;20165;-51
2023/07/09 01:53:59;;;;;;;22.67;6.88;;;22.70;99.90;;;;;;5095462;28;20252;-52
2023/07/09 01:56:25;;;;;;;15.63;7.05;;;22.70;99.90;;;;;;5095615;28;20197;-52
2023/07/09 01:58:51;;;;;;;18.00;6.55;;;22.80;99.90;;;;;;5095333;28;20211;-51
2023/07/09 02:01:19;;;;;;;16.17;6.80;;;22.70;99.90;;;;;;5095726;28;20193;-51
2023/07/09 02:03:45;;;;;;;13.45;6.43;;;22.80;99.90;;;;;;5095693;28;20561;-51
2023/07/09 02:06:12;;;;;;;24.73;7.30;;;22.70;99.90;;;;;;5095187;28;20323;-51
2023/07/09 02:08:37;;;;;;;16.10;6.82;;;22.70;99.90;;;;;;5095437;28;20198;-52
2023/07/09 02:11:03;;;;;;;10.80;6.68;;;22.70;99.90;;;;;;5094975;28;20677;-52
2023/07/09 02:13:29;;;;;;;14.73;6.95;;;22.70;99.90;;;;;;5095147;28;20172;-51
2023/07/09 02:15:54;;;;;;;14.90;6.75;;;22.80;99.90;;;;;;5095244;28;20175;-51
2023/07/09 02:18:20;;;;;;;23.30;7.03;;;22.70;99.90;;;;;;5094937;28;20168;-51
2023/07/09 02:20:46;;;;;;;21.02;6.72;;;22.70;99.90;;;;;;5095332;28;20200;-52
2023/07/09 02:23:12;;;;;;;18.50;6.97;;;22.70;99.90;;;;;;5094846;28;20170;-51
2023/07/09 02:25:37;;;;;;;13.45;6.57;;;22.70;99.90;;;;;;5094757;28;20170;-51
2023/07/09 02:28:03;;;;;;;14.93;6.18;;;22.60;99.90;;;;;;5094801;28;20173;-51
2023/07/09 02:30:28;;;;;;;17.17;6.20;;;22.60;99.90;;;;;;5095001;28;20249;-51
2023/07/09 02:32:54;;;;;;;15.57;6.20;;;22.50;99.90;;;;;;5094707;28;20188;-52
2023/07/09 02:35:20;;;;;;;9.35;5.75;;;22.60;99.90;;;;;;5095089;28;20531;-51
2023/07/09 02:37:46;;;;;;;17.52;6.15;;;22.50;99.90;;;;;;5095095;28;20677;-51
2023/07/09 02:40:13;;;;;;;13.65;6.32;;;22.50;99.90;;;;;;5094660;28;20200;-51
2023/07/09 02:42:39;;;;;;;11.90;5.90;;;22.30;99.90;;;;;;5094405;28;20657;-51
2023/07/09 02:45:05;;;;;;;11.55;6.60;;;22.40;99.90;;;;;;5094526;28;20211;-51
2023/07/09 02:47:31;;;;;;;18.55;6.35;;;22.50;99.90;;;;;;5094436;28;20222;-51
2023/07/09 02:49:56;;;;;;;14.95;7.28;;;22.50;99.90;;;;;;5094400;28;20169;-51
2023/07/09 02:52:22;;;;;;;12.95;7.07;;;22.50;99.90;;;;;;5094901;28;20173;-51
2023/07/09 02:54:47;;;;;;;17.38;7.18;;;22.30;99.90;;;;;;5093796;28;20663;-51
2023/07/09 02:57:13;;;;;;;12.73;7.57;;;22.50;99.90;;;;;;5093825;28;20211;-51
2023/07/09 02:59:39;;;;;;;13.68;7.63;;;22.50;99.90;;;;;;5094054;28;20179;-51
2023/07/09 03:02:04;;;;;;;13.27;7.40;;;22.40;99.90;;;;;;5094113;28;20204;-51
2023/07/09 03:04:33;;;;;;;15.38;7.32;;;22.50;99.90;;;;;;5094059;28;20204;-51
2023/07/09 03:07:02;;;;;;;17.45;6.65;;;22.40;99.90;;;;;;5094069;28;20234;-52
2023/07/09 03:09:28;;;;;;;20.20;6.65;;;22.40;99.90;;;;;;5093926;28;20239;-52
2023/07/09 03:11:54;;;;;;;18.30;6.82;;;22.10;99.90;;;;;;5093980;28;20197;-52
2023/07/09 03:14:20;;;;;;;16.52;7.18;;;21.90;99.90;;;;;;5093985;28;20204;-51
2023/07/09 03:16:46;;;;;;;25.73;7.32;;;21.90;99.90;;;;;;5094277;28;20177;-52
2023/07/09 03:19:11;;;;;;;15.05;6.63;;;22.00;99.90;;;;;;5094038;28;20169;-51
2023/07/09 03:21:37;;;;;;;14.05;7.55;;;22.00;99.90;;;;;;5093692;28;20614;-52
2023/07/09 03:24:03;;;;;;;18.90;6.63;;;22.10;99.90;;;;;;5093754;28;20617;-52
2023/07/09 03:26:28;;;;;;;16.75;6.65;;;22.00;99.90;;;;;;5093751;28;20165;-51
2023/07/09 03:28:55;;;;;;;21.00;6.90;;;22.00;99.90;;;;;;5093687;28;20165;-51
2023/07/09 03:31:21;;;;;;;23.85;6.75;;;22.00;99.90;;;;;;5093539;28;20248;-51
2023/07/09 03:33:51;;;;;;;33.33;7.95;;;22.00;99.90;;;;;;5093956;28;20165;-51
2023/07/09 03:36:19;;;;;;;20.92;7.82;;;22.00;99.90;;;;;;5093865;28;20172;-52
2023/07/09 03:38:44;;;;;;;23.67;7.18;;;22.00;99.90;;;;;;5094038;28;20532;-52
2023/07/09 03:41:10;;;;;;;27.42;7.78;;;22.10;99.90;;;;;;5093356;28;20201;-51
2023/07/09 03:43:36;;;;;;;28.95;7.72;;;22.00;99.90;;;;;;5093233;28;20173;-51
2023/07/09 03:46:01;;;;;;;27.75;7.88;;;21.90;99.90;;;;;;5093293;28;20205;-52
2023/07/09 03:48:27;;;;;;;19.77;7.22;;;21.90;99.90;;;;;;5093317;28;20633;-52
2023/07/09 03:50:52;;;;;;;21.00;6.70;;;22.00;99.90;;;;;;5093452;28;20170;-51
2023/07/09 03:53:18;;;;;;;33.15;7.03;;;22.00;99.90;;;;;;5093627;28;20207;-52
2023/07/09 03:55:46;;;;;;;26.10;7.53;;;22.00;99.90;;;;;;5093084;28;20165;-52
2023/07/09 03:58:12;;;;;;;19.55;6.85;;;22.10;99.90;;;;;;5093274;28;20197;-51
2023/07/09 04:00:38;;;;;;;17.48;6.40;;;22.10;99.90;;;;;;5093019;28;20188;-51
2023/07/09 04:03:03;;;;;;;21.45;7.03;;;22.20;99.90;;;;;;5093201;28;20579;-51
2023/07/09 04:05:29;;;;;;;27.98;7.50;;;22.10;99.90;;;;;;5092969;28;20170;-51
2023/07/09 04:07:55;;;;;;;34.63;8.00;;;22.00;99.90;;;;;;5092853;28;20181;-50
2023/07/09 04:10:21;;;;;;;22.83;6.78;;;22.10;99.90;;;;;;5092616;28;20240;-51
2023/07/09 04:12:47;;;;;;;28.70;7.80;;;22.00;99.90;;;;;;5093088;28;20639;-51
2023/07/09 04:15:12;;;;;;;30.10;7.63;;;22.00;99.90;;;;;;5092649;28;20215;-51
2023/07/09 04:17:39;;;;;;;29.15;7.20;;;22.10;99.90;;;;;;5092893;28;20198;-51
2023/07/09 04:20:07;;;;;;;19.60;7.05;;;22.20;99.90;;;;;;5092664;28;20172;-51
2023/07/09 04:22:33;;;;;;;25.80;7.15;;;22.20;99.90;;;;;;5092731;28;20209;-51
2023/07/09 04:24:59;;;;;;;32.05;7.38;;;22.30;99.90;;;;;;5092804;28;20170;-51
2023/07/09 04:27:27;;;;;;;25.27;8.02;;;22.40;99.90;;;;;;5092594;28;20175;-51
2023/07/09 04:29:53;;;;;;;18.27;6.88;;;22.50;99.90;;;;;;5092543;28;20169;-51
2023/07/09 04:32:19;;;;;;;17.75;6.90;;;22.50;99.90;;;;;;5092821;28;20165;-51
2023/07/09 04:34:45;;;;;;;22.60;6.38;;;22.40;99.90;;;;;;5092901;28;20191;-51
2023/07/09 04:37:11;;;;;;;24.40;7.38;;;22.50;99.90;;;;;;5092423;28;20196;-51
2023/07/09 04:39:37;;;;;;;16.33;6.57;;;22.50;99.90;;;;;;5092546;28;20180;-51
2023/07/09 04:42:03;;;;;;;12.95;6.38;;;22.70;99.90;;;;;;5092171;28;20601;-52
2023/07/09 04:44:29;;;;;;;14.55;7.00;;;22.80;99.90;;;;;;5092444;28;20196;-52
2023/07/09 04:46:55;;;;;;;12.55;6.50;;;23.00;99.90;;;;;;5092117;28;20195;-51
2023/07/09 04:49:20;;;;;;;13.13;6.25;;;23.10;99.90;;;;;;5092160;28;20169;-51
2023/07/09 04:51:46;;;;;;;8.95;7.07;;;23.20;99.90;;;;;;5092618;28;20692;-52
2023/07/09 04:54:14;;;;;;;12.40;7.07;;;23.20;99.90;;;;;;5092015;28;20656;-52
2023/07/09 04:56:44;;;;;;;9.93;6.72;;;23.30;99.90;;;;;;5092347;28;20169;-52
2023/07/09 04:59:10;;;;;;;10.30;6.82;;;23.40;99.90;;;;;;5091948;28;20659;-52
2023/07/09 05:01:36;;;;;;;10.35;6.55;;;23.60;99.90;;;;;;5092168;28;20213;-52
2023/07/09 05:04:02;;;;;;;12.15;7.10;;;23.70;99.90;;;;;;5091917;28;20169;-52
2023/07/09 05:06:28;;;;;;;13.38;7.13;;;23.80;99.90;;;;;;5091959;28;20191;-52
2023/07/09 05:08:53;;;;;;;8.25;6.20;;;23.80;99.90;;;;;;5092033;28;20173;-52
2023/07/09 05:11:19;;;;;;;13.50;7.50;;;24.00;99.90;;;;;;5092095;28;20213;-52
2023/07/09 05:13:44;;;;;;;12.75;6.88;;;23.80;99.90;;;;;;5092171;28;20195;-52
2023/07/09 05:16:10;;;;;;;11.90;6.72;;;24.00;99.90;;;;;;5091760;28;20219;-52
2023/07/09 05:18:37;;;;;;;9.02;6.88;;;24.10;99.90;;;;;;5091735;28;20171;-52
2023/07/09 05:21:03;;;;;;;9.43;6.60;;;24.20;99.90;;;;;;5091122;28;20173;-52
2023/07/09 05:23:29;;;;;;;9.50;7.70;;;24.10;99.90;;;;;;5091660;28;20222;-52
2023/07/09 05:25:59;;;;;;;9.85;6.90;;;24.10;99.90;;;;;;5091687;28;20165;-52
2023/07/09 05:28:24;;;;;;;10.07;7.07;;;24.10;99.90;;;;;;5091584;28;20260;-51
2023/07/09 05:30:50;;;;;;;10.18;6.97;;;24.10;99.90;;;;;;5091821;28;20196;-50
2023/07/09 05:33:18;;;;;;;10.40;6.53;;;24.20;99.90;;;;;;5092030;28;20165;-51
2023/07/09 05:35:44;;;;;;;13.40;7.18;;;24.40;99.90;;;;;;5091481;28;20655;-50
2023/07/09 05:38:09;;;;;;;12.65;6.82;;;24.30;99.90;;;;;;5091512;28;20169;-50
2023/07/09 05:40:35;;;;;;;12.02;7.20;;;24.50;99.90;;;;;;5091467;28;20165;-50
2023/07/09 05:43:01;;;;;;;12.57;7.45;;;24.50;99.90;;;;;;5091377;28;20672;-52
2023/07/09 05:45:26;;;;;;;10.13;6.93;;;24.60;99.90;;;;;;5091697;28;20674;-50
2023/07/09 05:47:52;;;;;;;9.80;7.32;;;24.70;99.90;;;;;;5091429;28;20200;-50
2023/07/09 05:50:17;;;;;;;12.38;6.40;;;24.70;99.90;;;;;;5091933;28;20211;-50
2023/07/09 05:52:43;;;;;;;8.15;6.53;;;24.60;99.90;;;;;;5091357;28;20165;-50
2023/07/09 05:55:09;;;;;;;8.90;6.78;;;24.80;99.90;;;;;;5091562;28;20179;-50
2023/07/09 05:57:35;;;;;;;10.38;7.05;;;24.90;99.90;;;;;;5091273;28;20234;-50
2023/07/09 06:00:00;;;;;;;10.70;7.05;;;24.90;99.90;;;;;;5091207;28;20256;-50
2023/07/09 06:02:26;;;;;;;8.23;7.03;;;24.90;99.90;;;;;;5091420;28;20250;-50
2023/07/09 06:04:51;;;;;;;11.15;7.45;;;25.00;99.90;;;;;;5091201;28;20218;-50
2023/07/09 06:07:20;;;;;;;8.07;6.82;;;25.00;99.90;;;;;;5091819;28;20587;-50
2023/07/09 06:09:46;;;;;;;14.70;6.93;;;25.10;99.90;;;;;;5091416;28;20208;-50
2023/07/09 06:12:12;;;;;;;10.13;6.78;;;25.00;99.90;;;;;;5091456;28;20177;-50
2023/07/09 06:14:37;;;;;;;13.68;7.20;;;25.10;99.90;;;;;;5072996;28;20530;-51
2023/07/09 06:17:03;;;;;;;12.68;6.45;;;25.30;99.90;;;;;;5091140;28;20161;-51
2023/07/09 06:19:29;;;;;;;11.13;6.78;;;25.30;99.90;;;;;;5091196;28;20655;-52
2023/07/09 06:21:55;;;;;;;10.45;6.75;;;25.40;99.90;;;;;;5091052;28;20196;-50
2023/07/09 06:24:22;;;;;;;11.05;6.38;;;25.30;99.90;;;;;;5091343;28;20196;-50
2023/07/09 06:26:47;;;;;;;9.30;6.68;;;25.30;99.90;;;;;;5091449;28;20153;-51
2023/07/09 06:29:13;;;;;;;8.10;7.00;;;25.40;99.90;;;;;;5091182;28;20165;-52
2023/07/09 06:31:40;;;;;;;12.57;6.45;;;25.60;99.90;;;;;;5091014;28;20647;-51
2023/07/09 06:34:07;;;;;;;9.02;6.32;;;25.70;99.90;;;;;;5093315;28;20161;-52
2023/07/09 06:36:33;;;;;;;12.63;6.82;;;25.80;99.90;;;;;;5094829;28;20177;-51
2023/07/09 06:38:58;;;;;;;9.05;6.07;;;25.90;99.90;;;;;;5094708;28;20173;-52
2023/07/09 06:41:24;;;;;;;7.80;6.00;;;26.00;99.90;;;;;;5094434;28;20196;-51
2023/07/09 06:43:50;;;;;;;11.15;6.57;;;26.20;99.90;;;;;;5094556;28;20264;-52
2023/07/09 06:46:18;;;;;;;12.07;6.72;;;26.00;99.90;;;;;;5094867;28;20165;-52
2023/07/09 06:48:44;;;;;;;12.05;6.22;;;26.30;99.90;;;;;;5094899;28;20180;-51
2023/07/09 06:51:09;;;;;;;8.10;5.97;;;26.30;99.90;;;;;;5094398;28;20169;-51
2023/07/09 06:53:36;;;;;;;9.40;6.50;;;26.40;99.90;;;;;;5094377;28;20172;-51
2023/07/09 06:56:02;;;;;;;8.32;6.18;;;26.40;99.90;;;;;;5094215;28;20523;-51
2023/07/09 06:58:34;;;;;;;9.05;5.95;;;26.50;99.90;;;;;;5094299;28;20157;-51
2023/07/09 07:01:04;;;;;;;9.40;6.28;;;26.60;99.90;;;;;;5094307;28;20169;-51
2023/07/09 07:03:32;;;;;;;10.38;5.80;;;26.70;99.90;;;;;;5094484;28;20169;-51
2023/07/09 07:05:58;;;;;;;7.60;5.78;;;26.80;99.90;;;;;;5094088;28;20189;-51
2023/07/09 07:08:25;;;;;;;9.57;6.18;;;27.10;99.90;;;;;;5094083;28;20188;-50
2023/07/09 07:11:02;;;;;;;12.55;5.57;;;26.80;99.90;;;;;;5093818;28;20295;-50
2023/07/09 07:13:32;;;;;;;9.65;6.32;;;27.00;99.90;;;;;;5094239;28;20180;-51
2023/07/09 07:15:58;;;;;;;12.10;5.57;;;27.00;99.90;;;;;;5093956;28;20173;-51
2023/07/09 07:18:24;;;;;;;6.82;5.45;;;27.30;99.90;;;;;;5076155;28;20617;-52
2023/07/09 07:20:50;;;;;;;8.15;5.93;;;27.40;99.90;;;;;;5093880;28;20532;-52
2023/07/09 07:23:16;;;;;;;11.18;5.97;;;27.40;99.90;;;;;;5094309;28;20270;-52
2023/07/09 07:25:42;;;;;;;7.22;4.85;;;27.40;99.90;;;;;;5093482;28;20574;-52
2023/07/09 07:28:08;;;;;;;8.13;5.68;;;27.50;99.90;;;;;;5093630;28;20255;-52
2023/07/09 07:30:33;;;;;;;10.77;6.35;;;27.60;99.90;;;;;;5093669;28;20169;-52
2023/07/09 07:32:59;;;;;;;8.88;5.90;;;27.80;99.90;;;;;;5093500;28;20676;-52
2023/07/09 07:35:24;;;;;;;9.75;5.35;;;27.80;99.90;;;;;;5093608;28;20262;-52
2023/07/09 07:37:50;;;;;;;7.20;5.43;;;28.00;99.90;;;;;;5093490;28;20227;-52
2023/07/09 07:40:16;;;;;;;11.35;6.10;;;27.90;99.90;;;;;;5093841;28;20226;-52
2023/07/09 07:42:41;;;;;;;8.30;5.32;;;28.00;99.90;;;;;;5093305;28;20606;-52
2023/07/09 07:45:08;;;;;;;8.95;5.55;;;28.20;99.90;;;;;;5093413;28;20173;-52
2023/07/09 07:47:33;;;;;;;7.70;5.90;;;28.30;99.90;;;;;;5093475;28;20192;-52
2023/07/09 07:49:59;;;;;;;8.38;5.78;;;28.40;99.90;;;;;;5093024;28;20637;-52
2023/07/09 07:52:25;;;;;;;8.07;5.15;;;28.50;99.90;;;;;;5093052;28;20187;-52
2023/07/09 07:54:52;;;;;;;9.55;5.50;;;28.60;99.90;;;;;;5093169;28;20168;-52
2023/07/09 07:57:18;;;;;;;10.60;5.65;;;28.60;99.90;;;;;;5093598;28;20169;-52
2023/07/09 07:59:43;;;;;;;6.85;5.22;;;28.70;99.90;;;;;;5093321;28;20244;-52
2023/07/09 08:02:13;;;;;;;8.38;5.55;;;29.00;99.90;;;;;;5092830;28;20235;-52
2023/07/09 08:04:40;;;;;;;9.00;5.35;;;29.00;99.90;;;;;;5092930;28;20236;-51
2023/07/09 08:07:09;;;;;;;7.65;5.28;;;29.00;99.90;;;;;;5092869;28;20169;-52
2023/07/09 08:09:35;;;;;;;9.90;5.55;;;29.00;99.90;;;;;;5092751;28;20230;-52
2023/07/09 08:12:08;;;;;;;11.07;5.35;;;28.90;99.90;;;;;;5092835;28;20204;-52
2023/07/09 08:14:34;;;;;;;12.38;5.45;;;29.20;99.90;;;;;;5092802;28;20502;-53
2023/07/09 08:17:00;;;;;;;10.27;5.80;;;29.20;99.90;;;;;;5089962;28;20180;-53
2023/07/09 08:19:25;;;;;;;7.93;5.40;;;29.50;99.90;;;;;;5090940;28;20206;-52
2023/07/09 08:21:51;;;;;;;9.23;5.20;;;29.50;99.90;;;;;;5090823;28;20208;-51
2023/07/09 08:24:17;;;;;;;6.22;5.22;;;29.60;99.90;;;;;;5091041;28;20168;-53
2023/07/09 08:26:43;;;;;;;8.82;5.45;;;29.80;99.90;;;;;;5091232;28;20165;-51
2023/07/09 08:29:08;;;;;;;11.48;5.53;;;30.10;99.90;;;;;;5090767;28;20240;-52
2023/07/09 08:31:34;;;;;;;7.20;5.15;;;30.00;99.90;;;;;;5090806;28;20165;-52
2023/07/09 08:33:59;;;;;;;8.80;5.53;;;30.20;99.90;;;;;;5089906;28;20671;-51
2023/07/09 08:36:25;;;;;;;8.75;5.60;;;30.10;99.90;;;;;;5070188;28;20528;-52
2023/07/09 08:38:50;;;;;;;9.30;5.10;;;30.20;99.90;;;;;;5070264;28;20177;-51
2023/07/09 08:41:44;;;;;;;11.48;4.97;;;30.40;99.90;;;;;;5070620;28;20197;-52
2023/07/09 08:44:18;;;;;;;8.82;5.35;;;30.40;99.90;;;;;;5086864;28;20177;-52
2023/07/09 08:47:05;;;;;;;6.22;5.18;;;30.40;99.90;;;;;;5072530;28;20176;-52
2023/07/09 08:49:54;;;;;;;6.20;4.63;;;30.60;99.90;;;;;;5090351;28;20172;-52
2023/07/09 08:52:32;;;;;;;10.90;5.30;;;30.80;99.90;;;;;;5090685;28;20203;-52
2023/07/09 08:55:03;;;;;;;10.48;5.53;;;30.80;99.90;;;;;;5090315;28;20168;-52
2023/07/09 08:57:34;;;;;;;6.25;4.85;;;30.90;99.90;;;;;;5090096;28;20160;-52
2023/07/09 09:00:07;;;;;;;8.23;5.25;;;30.90;99.90;;;;;;5090370;28;20241;-52
2023/07/09 09:02:43;;;;;;;7.40;5.53;;;31.00;99.90;;;;;;5089919;28;20240;-52
2023/07/09 09:05:16;;;;;;;10.90;4.85;;;31.10;99.90;;;;;;5090298;28;20711;-52
2023/07/09 09:07:43;;;;;;;7.70;5.43;;;31.30;99.90;;;;;;5088646;28;20255;-53
2023/07/09 09:10:21;;;;;;;10.65;5.85;;;31.50;99.90;;;;;;5089959;28;20664;-52
2023/07/09 09:12:55;;;;;;;8.40;5.28;;;31.60;99.90;;;;;;5090591;28;20169;-51
2023/07/09 09:15:21;;;;;;;7.18;4.80;;;31.60;99.90;;;;;;5089046;28;20172;-51
2023/07/09 09:17:53;;;;;;;9.32;5.30;;;31.70;99.90;;;;;;5090437;28;20557;-51
2023/07/09 09:20:22;;;;;;;10.07;5.40;;;31.70;99.90;;;;;;5089713;28;20255;-51
2023/07/09 09:23:06;;;;;;;6.97;4.97;;;31.80;99.90;;;;;;5089927;28;20291;-51
2023/07/09 09:25:34;;;;;;;9.93;5.03;;;32.00;99.90;;;;;;5089673;28;20247;-51
2023/07/09 09:28:01;;;;;;;8.90;5.82;;;32.10;99.90;;;;;;5089306;28;20176;-51
2023/07/09 09:30:28;;;;;;;8.35;5.00;;;32.10;99.90;;;;;;5089629;28;20157;-51
2023/07/09 09:32:58;;;;;;;8.43;5.50;;;32.00;99.90;;;;;;5089580;28;20194;-51
2023/07/09 09:35:33;;;;;;;10.02;5.15;;;32.20;99.90;;;;;;5089673;28;20169;-51
2023/07/09 09:37:59;;;;;;;8.57;5.40;;;32.20;99.90;;;;;;5089682;28;20257;-51
2023/07/09 09:40:28;;;;;;;10.85;5.45;;;32.40;99.90;;;;;;5089794;28;20171;-51
2023/07/09 09:42:57;;;;;;;7.80;5.75;;;32.70;99.90;;;;;;5089361;28;20204;-51
2023/07/09 09:45:35;;;;;;;7.65;5.65;;;32.80;99.90;;;;;;5089534;28;20573;-51
2023/07/09 09:48:10;;;;;;;6.60;5.03;;;32.70;99.90;;;;;;5089733;28;20281;-52
2023/07/09 09:50:35;;;;;;;8.00;5.22;;;32.80;99.90;;;;;;5071618;28;20179;-51
2023/07/09 09:53:01;;;;;;;10.88;5.32;;;32.90;99.90;;;;;;5089841;28;20172;-51
2023/07/09 09:55:33;;;;;;;9.88;5.30;;;33.00;99.90;;;;;;5089614;28;20533;-52
2023/07/09 09:57:59;;;;;;;8.68;5.18;;;33.10;99.90;;;;;;5089380;28;20187;-52
2023/07/09 10:00:27;;;;;;;10.13;5.43;;;33.30;99.90;;;;;;5089446;28;20161;-52
2023/07/09 10:03:08;;;;;;;10.65;4.85;;;33.30;99.90;;;;;;5089623;28;20295;-51
2023/07/09 10:05:44;;;;;;;5.70;5.15;;;33.50;99.90;;;;;;5089363;28;20185;-52
2023/07/09 10:08:20;;;;;;;9.50;5.57;;;33.50;99.90;;;;;;5092147;28;20165;-52
2023/07/09 10:10:46;;;;;;;8.50;5.25;;;33.60;99.90;;;;;;5093705;28;20223;-52
2023/07/09 10:13:23;;;;;;;8.02;5.28;;;33.60;99.90;;;;;;5093137;28;20169;-52
2023/07/09 10:16:29;;;;;;;8.40;5.15;;;33.90;99.90;;;;;;5093351;28;20176;-51
2023/07/09 10:19:19;;;;;;;9.02;5.82;;;33.80;99.90;;;;;;5093521;28;20635;-52
2023/07/09 10:21:50;;;;;;;7.53;5.10;;;33.90;99.90;;;;;;5093099;28;20204;-52
2023/07/09 10:24:33;;;;;;;7.93;5.18;;;33.90;99.90;;;;;;5093167;28;20234;-51
2023/07/09 10:27:19;;;;;;;7.85;4.97;;;34.00;99.90;;;;;;5092611;28;20161;-52
2023/07/09 10:30:15;;;;;;;7.20;4.97;;;34.10;99.90;;;;;;5092053;28;20218;-51
2023/07/09 10:32:43;;;;;;;8.82;5.13;;;34.10;99.90;;;;;;5092739;28;20245;-51
2023/07/09 10:35:19;;;;;;;10.10;5.72;;;34.20;99.90;;;;;;5093054;28;20164;-51
2023/07/09 10:38:13;;;;;;;8.60;5.70;;;34.40;99.90;;;;;;5093586;28;20164;-53
2023/07/09 10:40:53;;;;;;;7.10;5.50;;;34.20;99.90;;;;;;5093273;28;20157;-52
2023/07/09 10:43:38;;;;;;;8.60;5.22;;;34.40;99.90;;;;;;5092730;28;20204;-52
2023/07/09 10:46:17;;;;;;;8.13;5.07;;;34.50;99.90;;;;;;5092591;28;20168;-52
2023/07/09 10:48:49;;;;;;;9.13;4.97;;;34.60;99.90;;;;;;5092997;28;20164;-52
2023/07/09 10:51:36;;;;;;;9.00;5.18;;;34.60;99.40;;;;;;5092158;28;20560;-52
2023/07/09 10:54:05;;;;;;;9.07;5.43;;;34.60;99.70;;;;;;5092697;28;20177;-52
2023/07/09 10:56:35;;;;;;;8.20;4.97;;;34.70;99.90;;;;;;5092227;28;20535;-51
2023/07/09 10:59:16;;;;;;;8.55;5.38;;;35.00;99.60;;;;;;5074543;28;20539;-51
2023/07/09 11:01:49;;;;;;;5.47;4.35;;;34.90;99.00;;;;;;5092272;28;20252;-51
2023/07/09 11:04:26;;;;;;;6.90;4.93;;;35.10;99.20;;;;;;5092465;28;20198;-51
2023/07/09 11:06:56;;;;;;;7.97;5.30;;;34.80;97.50;;;;;;5091950;28;20535;-51
2023/07/09 11:09:40;;;;;;;9.48;4.43;;;35.10;97.50;;;;;;5091765;28;20164;-51
2023/07/09 11:12:17;;;;;;;6.20;4.70;;;35.10;97.50;;;;;;5092128;28;20176;-51
2023/07/09 11:14:54;;;;;;;5.95;4.80;;;35.20;97.60;;;;;;5092413;28;20156;-50
2023/07/09 11:17:22;;;;;;;8.63;4.97;;;35.30;97.60;;;;;;5091945;28;20180;-51
2023/07/09 11:19:55;;;;;;;9.23;5.57;;;35.50;97.30;;;;;;5091014;28;20218;-52
2023/07/09 11:22:22;;;;;;;8.15;4.75;;;35.50;95.80;;;;;;5092390;28;20660;-51
2023/07/09 11:25:07;;;;;;;8.38;4.53;;;35.50;94.70;;;;;;5092012;28;20161;-51
2023/07/09 11:27:33;;;;;;;9.23;4.90;;;35.80;94.00;;;;;;5092030;28;20248;-51
2023/07/09 11:30:18;;;;;;;7.80;4.88;;;35.80;93.80;;;;;;5073668;28;20306;-51
2023/07/09 11:32:52;;;;;;;6.68;4.30;;;35.30;93.50;;;;;;5092087;28;20221;-51
2023/07/09 11:35:23;;;;;;;5.93;4.30;;;35.60;93.20;;;;;;5092049;28;20164;-51
2023/07/09 11:37:49;;;;;;;6.88;4.90;;;35.50;93.30;;;;;;5091614;28;20171;-51
2023/07/09 11:40:18;;;;;;;5.82;4.80;;;35.50;93.10;;;;;;5092284;28;20169;-51
2023/07/09 11:42:52;;;;;;;6.68;5.05;;;35.50;92.50;;;;;;5091909;28;20611;-51
2023/07/09 11:45:25;;;;;;;14.50;4.70;;;35.80;92.50;;;;;;5091503;28;20691;-51
2023/07/09 11:48:27;;;;;;;7.22;5.03;;;35.80;92.00;;;;;;5090927;28;20181;-51
2023/07/09 11:50:55;;;;;;;5.38;4.60;;;36.00;90.10;;;;;;5087720;28;20173;-51
2023/07/09 11:53:44;;;;;;;6.05;4.80;;;36.30;91.20;;;;;;5091454;28;20157;-51
2023/07/09 11:56:11;;;;;;;7.63;4.20;;;36.20;90.30;;;;;;5091545;28;20167;-51
2023/07/09 11:58:51;;;;;;;7.35;4.35;;;36.00;87.70;;;;;;5091655;28;20164;-51
2023/07/09 12:01:22;;;;;;;7.32;4.72;;;35.80;84.40;;;;;;5091216;28;20247;-51
2023/07/09 12:03:48;;;;;;;5.28;4.30;;;36.00;85.40;;;;;;5091002;28;20168;-51
2023/07/09 12:06:25;;;;;;;6.78;4.30;;;35.80;85.20;;;;;;5091429;28;20651;-51
2023/07/09 12:08:52;;;;;;;7.30;4.03;;;35.80;83.40;;;;;;5091239;28;20168;-51
2023/07/09 12:11:25;;;;;;;5.95;4.20;;;35.80;82.10;;;;;;5090795;28;20216;-51
2023/07/09 12:13:51;;;;;;;7.32;4.70;;;35.80;81.70;;;;;;5090791;28;20256;-51
2023/07/09 12:16:32;;;;;;;7.07;3.95;;;35.80;82.20;;;;;;5090700;28;20161;-51
2023/07/09 12:18:58;;;;;;;7.50;4.18;;;36.00;80.40;;;;;;5090903;28;20169;-51
2023/07/09 12:21:25;;;;;;;7.47;4.35;;;36.00;81.00;;;;;;5090787;28;20203;-51
2023/07/09 12:23:52;;;;;;;6.13;4.03;;;36.40;83.10;;;;;;5090968;28;20182;-51
2023/07/09 12:26:19;;;;;;;5.53;4.35;;;36.70;81.80;;;;;;5090861;28;20252;-51
2023/07/09 12:28:57;;;;;;;6.38;4.20;;;36.70;80.70;;;;;;5091520;28;20749;-51
2023/07/09 12:31:28;;;;;;;6.25;4.47;;;36.90;78.90;;;;;;5089403;28;20244;-51
2023/07/09 12:33:55;;;;;;;6.32;4.03;;;36.40;77.30;;;;;;5090597;28;20180;-51
2023/07/09 12:36:23;;;;;;;8.65;4.28;;;36.50;77.70;;;;;;5090795;28;20680;-51
2023/07/09 12:38:55;;;;;;;7.30;4.60;;;36.20;77.30;;;;;;5090588;28;20165;-51
2023/07/09 12:41:28;;;;;;;6.85;5.00;;;35.90;78.60;;;;;;5089937;28;20222;-53
2023/07/09 12:43:55;;;;;;;5.78;4.18;;;35.80;80.10;;;;;;5090544;28;20172;-53
2023/07/09 12:46:22;;;;;;;10.20;4.50;;;35.80;78.80;;;;;;5090589;28;20188;-53
2023/07/09 12:48:48;;;;;;;8.45;4.72;;;35.70;78.00;;;;;;5090547;28;20168;-52
2023/07/09 12:51:20;;;;;;;7.93;4.78;;;35.60;79.10;;;;;;5091108;28;20179;-51